Time;durP1;ratioP1;P1;durP2;ratioP2;P2;SDS_P1;SDS_P2;PMS_P1;PMS_P2;Temp;Humidity;BMP_temperature;BMP_pressure;BME280_temperature;BME280_humidity;BME280_pressure;Samples;Min_cycle;Max_cycle;Signal;HPM_P1;HPM_P2
2022/06/23 06:26:39;;;;;;;;;3.67;3.67;;;;;22.91;100.00;99191.66;6284179;22;45767;-93
2022/06/23 06:29:19;;;;;;;;;6.67;5.00;;;;;22.89;100.00;99201.53;6288853;22;45394;-93
2022/06/23 06:31:50;;;;;;;;;4.67;4.33;;;;;22.74;100.00;99178.81;6256642;22;46098;-95
2022/06/23 06:34:31;;;;;;;;;7.67;6.00;;;;;22.90;100.00;99197.09;6217670;22;45045;-94
2022/06/23 06:39:49;;;;;;;;;7.00;7.00;;;;;22.93;100.00;99197.88;6266214;22;46353;-96
2022/06/23 06:42:18;;;;;;;;;7.00;5.33;;;;;22.97;100.00;99195.97;6286071;22;45353;-95
2022/06/23 06:44:48;;;;;;;;;6.33;4.67;;;;;22.97;100.00;99201.31;6262540;22;44721;-95
2022/06/23 06:47:24;;;;;;;;;4.67;4.33;;;;;22.98;100.00;99217.34;6251098;22;45342;-92
2022/06/23 06:49:56;;;;;;;;;5.67;5.67;;;;;22.86;100.00;99186.47;6270652;22;46193;-96
2022/06/23 06:52:21;;;;;;;;;5.33;4.33;;;;;22.96;100.00;99199.59;6241835;22;47180;-91
2022/06/23 07:03:04;;;;;;;;;5.67;5.67;;;;;23.26;100.00;99204.88;6246599;22;46430;-95
2022/06/23 07:05:42;;;;;;;;;4.00;4.00;;;;;23.40;100.00;99231.19;6322383;22;45404;-94
2022/06/23 07:08:22;;;;;;;;;4.33;4.33;;;;;23.49;100.00;99239.84;6275091;22;44911;-94
2022/06/23 07:10:51;;;;;;;;;5.00;4.00;;;;;23.51;100.00;99232.66;6298156;22;45555;-85
2022/06/23 07:13:28;;;;;;;;;6.33;5.00;;;;;23.54;100.00;99236.13;6271658;22;47481;-83
2022/06/23 07:16:03;;;;;;;;;6.00;4.33;;;;;23.59;100.00;99233.28;6269719;22;45965;-85
2022/06/23 07:18:44;;;;;;;;;4.33;4.33;;;;;23.71;100.00;99221.28;6272125;22;45342;-89
2022/06/23 07:21:41;;;;;;;;;5.00;4.00;;;;;23.93;100.00;99217.00;6299982;22;45663;-86
2022/06/23 07:24:11;;;;;;;;;4.00;4.00;;;;;24.04;100.00;99219.31;6268885;22;47235;-86
2022/06/23 07:26:58;;;;;;;;;8.33;6.67;;;;;24.17;100.00;99217.06;6273143;22;45250;-89
2022/06/23 07:29:40;;;;;;;;;7.00;4.00;;;;;24.29;100.00;99234.53;6298381;22;45319;-93
2022/06/23 07:32:54;;;;;;;;;6.67;6.33;;;;;24.47;100.00;99246.38;6273011;22;45451;-89
2022/06/23 07:35:40;;;;;;;;;4.00;3.33;;;;;24.64;100.00;99255.59;6290715;22;45303;-87
2022/06/23 07:38:32;;;;;;;;;8.67;7.33;;;;;24.87;100.00;99253.84;6277077;22;45845;-89
2022/06/23 07:41:23;;;;;;;;;4.67;4.67;;;;;24.97;100.00;99260.63;6274248;22;45735;-86
2022/06/23 07:44:03;;;;;;;;;3.00;3.00;;;;;25.07;100.00;99274.63;6300425;22;45350;-89
2022/06/23 07:46:30;;;;;;;;;4.33;4.33;;;;;25.04;100.00;99266.66;6300521;22;45453;-88
2022/06/23 07:48:56;;;;;;;;;3.33;3.33;;;;;25.06;100.00;99261.22;6299864;22;45451;-88
2022/06/23 07:51:23;;;;;;;;;5.00;5.00;;;;;25.22;100.00;99289.25;6302394;22;45242;-87
2022/06/23 07:53:51;;;;;;;;;7.33;5.33;;;;;25.30;100.00;99278.19;6302313;22;45334;-87
2022/06/23 07:56:23;;;;;;;;;7.00;4.00;;;;;25.32;100.00;99268.25;6301701;22;46345;-89
2022/06/23 07:58:52;;;;;;;;;6.67;5.00;;;;;25.54;100.00;99287.97;6273509;22;45354;-87
2022/06/23 08:01:39;;;;;;;;;4.00;4.00;;;;;25.69;100.00;99274.88;6296339;22;45326;-86
2022/06/23 08:04:18;;;;;;;;;5.33;5.33;;;;;25.79;100.00;99270.91;6272077;22;45610;-87
2022/06/23 08:06:44;;;;;;;;;6.00;4.00;;;;;25.93;100.00;99261.34;6301288;22;46751;-87
2022/06/23 08:09:25;;;;;;;;;4.33;4.33;;;;;26.14;100.00;99278.38;6301181;22;45326;-86
2022/06/23 08:14:47;;;;;;;;;9.33;6.00;;;;;26.31;100.00;99284.84;6305485;22;45269;-86
2022/06/23 08:17:15;;;;;;;;;5.67;5.67;;;;;26.40;100.00;99264.72;6296711;22;45805;-87
2022/06/23 08:19:48;;;;;;;;;6.33;5.00;;;;;26.37;100.00;99298.00;6272517;22;45523;-86
2022/06/23 08:22:25;;;;;;;;;4.00;4.00;;;;;26.34;100.00;99292.75;6301283;22;45379;-89
2022/06/23 08:24:55;;;;;;;;;5.00;5.00;;;;;26.39;100.00;99290.75;6301802;22;45243;-88
2022/06/23 08:27:28;;;;;;;;;5.00;5.00;;;;;26.47;100.00;99273.44;6300565;22;45497;-88
2022/06/23 08:30:00;;;;;;;;;6.33;5.33;;;;;26.52;100.00;99290.22;6272074;22;45284;-89
2022/06/23 08:32:26;;;;;;;;;4.00;4.00;;;;;26.58;100.00;99292.66;6300710;22;45354;-90
2022/06/23 08:35:09;;;;;;;;;5.00;5.00;;;;;26.67;100.00;99297.59;6300850;22;45399;-90
2022/06/23 08:37:41;;;;;;;;;5.33;5.00;;;;;26.74;100.00;99303.59;6271998;22;48064;-90
2022/06/23 08:40:37;;;;;;;;;5.00;4.67;;;;;26.86;100.00;99309.34;6301028;22;45466;-89
2022/06/23 08:43:32;;;;;;;;;5.00;5.00;;;;;27.02;100.00;99314.91;6300746;22;45344;-89
2022/06/23 08:46:07;;;;;;;;;5.00;4.00;;;;;27.15;100.00;99319.75;6300516;22;45194;-89
2022/06/23 08:48:44;;;;;;;;;5.33;5.00;;;;;27.28;100.00;99323.59;6303585;22;46099;-89
2022/06/23 08:51:34;;;;;;;;;4.33;4.33;;;;;27.38;100.00;99324.03;6273641;22;45381;-89
2022/06/23 08:54:12;;;;;;;;;3.00;3.00;;;;;27.49;100.00;99346.91;6299993;22;45293;-90
2022/06/23 08:57:03;;;;;;;;;6.00;4.67;;;;;27.47;100.00;99325.44;6273099;22;45346;-90
2022/06/23 08:59:43;;;;;;;;;6.00;5.00;;;;;27.42;100.00;99340.94;6300993;22;46520;-88
2022/06/23 09:02:21;;;;;;;;;4.00;4.00;;;;;27.36;100.00;99343.91;6270275;22;45817;-89
2022/06/23 09:04:52;;;;;;;;;5.00;4.00;;;;;27.33;100.00;99355.72;6272746;22;45383;-90
2022/06/23 09:07:33;;;;;;;;;5.00;4.00;;;;;27.29;100.00;99349.56;6301088;22;45271;-89
2022/06/23 09:10:21;;;;;;;;;4.00;4.00;;;;;27.27;100.00;99355.97;6272456;22;47378;-91
2022/06/23 09:12:55;;;;;;;;;5.00;5.00;;;;;27.42;100.00;99339.09;6271970;22;46356;-90
2022/06/23 09:15:33;;;;;;;;;5.00;5.00;;;;;27.71;100.00;99348.53;6273158;22;45436;-90
2022/06/23 09:18:10;;;;;;;;;3.33;3.33;;;;;28.02;100.00;99348.84;6300372;22;45694;-90
2022/06/23 09:21:23;;;;;;;;;5.33;4.33;;;;;28.24;100.00;99348.66;6270836;22;47338;-89
2022/06/23 09:24:19;;;;;;;;;4.67;4.67;;;;;28.45;100.00;99349.38;6306941;22;45684;-89
2022/06/23 09:27:22;;;;;;;;;4.00;4.00;;;;;28.65;100.00;99390.66;6271988;22;45710;-90
2022/06/23 09:30:19;;;;;;;;;5.00;5.00;;;;;28.70;100.00;99379.63;6272547;22;45720;-90
2022/06/23 09:32:58;;;;;;;;;5.00;4.00;;;;;28.76;100.00;99387.38;6299510;22;45345;-90
2022/06/23 09:35:29;;;;;;;;;3.67;3.67;;;;;28.81;100.00;99380.88;6272254;22;45320;-90
2022/06/23 09:38:13;;;;;;;;;3.67;3.67;;;;;28.88;100.00;99388.56;6300676;22;45308;-86
2022/06/23 09:41:10;;;;;;;;;3.33;3.33;;;;;28.90;100.00;99410.09;6300936;22;45417;-89
2022/06/23 09:43:44;;;;;;;;;4.67;4.67;;;;;28.96;100.00;99417.88;6234144;22;45424;-90
2022/06/23 09:46:38;;;;;;;;;5.00;3.67;;;;;29.06;100.00;99403.84;6207854;22;46057;-90
2022/06/23 09:49:39;;;;;;;;;5.67;5.33;;;;;29.11;100.00;99415.31;6234314;22;45516;-90
2022/06/23 09:52:05;;;;;;;;;4.33;4.33;;;;;29.15;100.00;99443.91;6211108;22;45551;-90
2022/06/23 09:54:52;;;;;;;;;3.33;3.33;;;;;29.20;100.00;99420.22;6237314;22;45411;-89
2022/06/23 09:57:48;;;;;;;;;6.67;6.67;;;;;29.74;100.00;99433.59;6240838;22;45451;-89
2022/06/23 10:00:25;;;;;;;;;6.00;4.00;;;;;30.84;100.00;99468.78;6211036;22;45890;-90
2022/06/23 10:02:56;;;;;;;;;5.00;5.00;;;;;32.99;100.00;99481.41;6207347;22;45274;-90
2022/06/23 10:05:57;;;;;;;;;6.33;6.00;;;;;34.15;100.00;99543.19;6208837;22;47232;-90
2022/06/23 10:08:39;;;;;;;;;3.00;3.00;;;;;35.95;100.00;100334.00;6233914;22;45369;-90
2022/06/23 10:11:21;;;;;;;;;3.67;3.67;;;;;35.74;95.67;100471.81;6207713;22;45421;-90
2022/06/23 10:14:15;;;;;;;;;4.00;4.00;;;;;36.61;89.73;100564.47;6213389;22;45291;-92
2022/06/23 10:16:57;;;;;;;;;4.00;3.00;;;;;37.39;91.26;100533.63;6204647;22;47092;-90
2022/06/23 10:19:32;;;;;;;;;5.00;4.00;;;;;37.07;87.93;100559.53;6235174;22;45971;-89
2022/06/23 10:21:57;;;;;;;;;5.00;3.33;;;;;38.12;91.39;100500.00;6269864;22;45358;-89
2022/06/23 10:24:38;;;;;;;;;5.33;4.33;;;;;39.75;86.82;100572.41;6275459;22;45487;-87
2022/06/23 10:27:31;;;;;;;;;5.67;4.00;;;;;40.56;82.22;100619.81;6298061;22;45710;-86
2022/06/23 10:30:07;;;;;;;;;6.00;3.00;;;;;39.87;77.51;100655.69;6273246;22;45498;-87
2022/06/23 10:32:53;;;;;;;;;4.00;4.00;;;;;40.31;77.67;100654.91;6300333;22;45330;-87
2022/06/23 10:35:51;;;;;;;;;3.67;3.33;;;;;42.04;77.58;100653.97;6299552;22;45321;-87
2022/06/23 10:38:56;;;;;;;;;5.00;5.00;;;;;44.70;76.13;100661.91;6271794;22;47050;-88
2022/06/23 10:41:47;;;;;;;;;4.67;4.67;;;;;47.03;73.09;100669.59;6298863;22;45387;-88
2022/06/23 10:44:21;;;;;;;;;4.00;3.67;;;;;49.01;63.90;100705.22;6275887;22;45342;-88
2022/06/23 10:47:09;;;;;;;;;4.67;4.67;;;;;50.42;60.98;100704.66;6299994;22;45297;-89
2022/06/23 10:50:05;;;;;;;;;3.00;2.67;;;;;51.86;61.40;100706.66;6299492;22;45905;-88
2022/06/23 10:52:42;;;;;;;;;2.00;2.00;;;;;53.18;56.96;100709.28;6298178;22;45453;-90
2022/06/23 10:55:22;;;;;;;;;3.67;3.00;;;;;52.52;52.31;100714.63;6270753;22;45629;-92
2022/06/23 10:58:12;;;;;;;;;4.00;3.33;;;;;49.96;50.16;100715.00;6271360;22;45547;-90
2022/06/23 11:00:56;;;;;;;;;3.00;3.00;;;;;47.84;52.01;100717.88;6300069;22;45487;-88
2022/06/23 11:03:52;;;;;;;;;4.00;4.00;;;;;46.28;53.69;100700.88;6271893;22;45454;-89
2022/06/23 11:06:45;;;;;;;;;4.33;4.00;;;;;44.27;53.55;100704.88;6304357;22;45374;-91
2022/06/23 11:09:17;;;;;;;;;5.00;4.00;;;;;45.38;55.41;100700.19;6299376;22;45333;-90
2022/06/23 11:12:02;;;;;;;;;6.00;4.67;;;;;47.56;56.18;100701.63;6302800;22;45347;-90
2022/06/23 11:14:59;;;;;;;;;5.33;4.00;;;;;48.80;53.09;100705.88;6301863;22;45239;-88
2022/06/23 11:17:37;;;;;;;;;5.00;4.00;;;;;47.69;52.19;100702.97;6300223;22;45286;-88
2022/06/23 11:20:25;;;;;;;;;6.00;4.67;;;;;46.26;52.48;100693.75;6299203;22;45800;-89
2022/06/23 11:23:28;;;;;;;;;4.00;4.00;;;;;47.01;52.77;100698.59;6299356;22;45646;-90
2022/06/23 11:26:02;;;;;;;;;5.00;5.00;;;;;48.72;52.95;100690.13;6208095;22;45627;-88
2022/06/23 11:28:30;;;;;;;;;5.00;4.00;;;;;49.58;50.35;100695.59;6208880;22;45592;-87
2022/06/23 11:31:11;;;;;;;;;5.33;4.33;;;;;51.04;49.95;100696.84;6209787;22;45347;-87
2022/06/23 11:34:10;;;;;;;;;4.00;4.00;;;;;52.33;48.96;100699.50;6209922;22;46955;-91
2022/06/23 11:36:53;;;;;;;;;5.67;5.67;;;;;53.23;48.85;100691.84;6210649;22;45326;-91
2022/06/23 11:39:45;;;;;;;;;5.00;5.00;;;;;54.46;48.13;100694.19;6235545;22;45731;-89
2022/06/23 11:42:52;;;;;;;;;2.67;2.67;;;;;55.70;46.07;100696.47;6231737;22;45407;-90
2022/06/23 11:45:39;;;;;;;;;3.00;3.00;;;;;56.74;43.11;100691.97;6235280;22;45451;-90
2022/06/23 11:48:36;;;;;;;;;3.00;3.00;;;;;57.54;40.78;100689.84;6235050;22;46097;-90
2022/06/23 11:51:27;;;;;;;;;3.00;3.00;;;;;57.73;39.61;100682.09;6233131;22;45598;-90
2022/06/23 11:54:11;;;;;;;;;4.67;4.00;;;;;56.90;39.82;100672.66;6208839;22;45584;-90
2022/06/23 11:57:02;;;;;;;;;3.67;3.67;;;;;57.62;39.57;100680.16;6231033;22;45472;-89
2022/06/23 11:59:59;;;;;;;;;4.33;3.33;;;;;56.24;38.46;100677.16;6236338;22;45254;-90
2022/06/23 12:02:25;;;;;;;;;3.00;3.00;;;;;56.46;38.07;100676.59;6257375;22;45416;-90
2022/06/23 12:05:09;;;;;;;;;3.67;2.00;;;;;57.23;39.69;100670.31;6301025;22;45318;-89
2022/06/23 12:08:17;;;;;;;;;4.00;3.67;;;;;57.64;38.58;100659.06;6270568;22;47358;-90
2022/06/23 12:10:42;;;;;;;;;3.00;3.00;;;;;55.82;38.11;100659.97;6300933;22;45293;-90
2022/06/23 12:13:08;;;;;;;;;3.67;2.67;;;;;56.10;39.38;100643.56;6300225;22;45317;-90
2022/06/23 12:15:39;;;;;;;;;3.67;3.67;;;;;57.11;36.28;100642.97;6301372;22;45352;-89
2022/06/23 12:18:11;;;;;;;;;3.00;3.00;;;;;58.00;36.28;100652.41;6271537;22;47500;-90
2022/06/23 12:20:49;;;;;;;;;4.00;4.00;;;;;58.62;36.07;100655.47;6269471;22;45533;-88
2022/06/23 12:23:37;;;;;;;;;4.00;4.00;;;;;59.35;36.86;100650.03;6301047;22;45524;-90
2022/06/23 12:26:16;;;;;;;;;2.00;2.00;;;;;60.02;35.51;100649.09;6272457;22;45449;-91
2022/06/23 12:29:00;;;;;;;;;2.33;2.33;;;;;58.00;35.47;100632.66;6268453;22;47553;-91
2022/06/23 12:31:44;;;;;;;;;2.33;2.00;;;;;56.25;34.98;100631.03;6299651;22;45217;-90
2022/06/23 12:34:47;;;;;;;;;4.00;4.00;;;;;57.00;36.15;100622.16;6298426;22;45380;-91
2022/06/23 12:37:42;;;;;;;;;3.00;3.00;;;;;58.33;36.00;100625.34;6300568;22;45389;-89
2022/06/23 12:40:31;;;;;;;;;4.00;4.00;;;;;58.96;36.04;100628.31;6300346;22;46342;-89
2022/06/23 12:43:15;;;;;;;;;2.00;2.00;;;;;60.24;36.38;100631.19;6271093;22;45664;-89
2022/06/23 12:45:49;;;;;;;;;4.33;3.00;;;;;61.41;33.83;100623.97;6271700;22;45380;-90
2022/06/23 12:48:33;;;;;;;;;3.00;3.00;;;;;62.16;32.91;100615.34;6271051;22;45464;-90
2022/06/23 12:51:12;;;;;;;;;2.00;2.00;;;;;61.98;33.36;100614.75;6297047;22;45592;-91
2022/06/23 12:53:59;;;;;;;;;2.00;2.00;;;;;63.31;31.84;100619.84;6295903;22;45318;-90
2022/06/23 12:56:50;;;;;;;;;2.00;2.00;;;;;64.65;31.30;100633.34;6270693;22;45534;-90
2022/06/23 12:59:40;;;;;;;;;2.00;2.00;;;;;64.93;30.30;100621.34;6271398;22;45172;-90
2022/06/23 13:02:27;;;;;;;;;2.67;2.67;;;;;61.74;30.38;100614.41;6299189;22;45411;-90
2022/06/23 13:05:03;;;;;;;;;2.67;2.67;;;;;60.10;31.66;100594.00;6295912;22;45735;-90
2022/06/23 13:07:56;;;;;;;;;3.00;3.00;;;;;61.75;32.77;100594.28;6268427;22;45326;-90
2022/06/23 13:10:43;;;;;;;;;2.00;2.00;;;;;63.81;31.45;100612.47;6272394;22;45601;-92
2022/06/23 13:13:11;;;;;;;;;3.00;3.00;;;;;65.18;30.41;100599.38;6271725;22;47247;-90
2022/06/23 13:15:39;;;;;;;;;1.00;1.00;;;;;65.73;29.37;100608.53;6272320;22;45842;-89
2022/06/23 13:18:19;;;;;;;;;4.00;3.00;;;;;63.62;28.39;100596.94;6299017;22;45420;-88
2022/06/23 13:20:53;;;;;;;;;2.00;2.00;;;;;61.36;29.33;100590.78;6271279;22;45420;-89
2022/06/23 13:23:31;;;;;;;;;3.00;3.00;;;;;61.88;30.14;100584.38;6269589;22;47407;-90
2022/06/23 13:26:05;;;;;;;;;3.00;3.00;;;;;63.16;30.61;100576.16;6298583;22;45376;-90
2022/06/23 13:28:38;;;;;;;;;3.00;3.00;;;;;64.39;29.63;100585.16;6272208;22;45327;-90
2022/06/23 13:31:26;;;;;;;;;2.67;2.67;;;;;65.43;28.72;100593.59;6265431;22;45330;-91
2022/06/23 13:34:01;;;;;;;;;2.00;2.00;;;;;66.08;29.35;100582.53;6269511;22;47280;-91
2022/06/23 13:36:42;;;;;;;;;3.00;3.00;;;;;66.33;27.49;100580.38;6269447;22;45350;-88
2022/06/23 13:39:40;;;;;;;;;2.00;1.33;;;;;65.09;27.22;100584.94;6269130;22;45402;-91
2022/06/23 13:42:15;;;;;;;;;4.00;3.00;;;;;63.46;27.46;100585.66;6271455;22;45361;-89
2022/06/23 13:44:47;;;;;;;;;2.00;2.00;;;;;63.41;27.98;100582.84;6299586;22;45609;-91
2022/06/23 13:47:23;;;;;;;;;1.33;1.33;;;;;63.82;28.24;100589.38;6269194;22;45582;-90
2022/06/23 13:49:53;;;;;;;;;3.67;3.67;;;;;64.36;25.50;100591.47;6270882;22;45574;-90
2022/06/23 13:52:33;;;;;;;;;1.33;1.33;;;;;63.36;27.11;100571.50;6272995;22;45314;-90
2022/06/23 13:55:13;;;;;;;;;2.00;2.00;;;;;62.45;27.62;100571.28;6272847;22;48020;-90
2022/06/23 13:57:44;;;;;;;;;3.00;2.67;;;;;60.42;27.86;100563.94;6300392;22;45381;-89
2022/06/23 14:00:32;;;;;;;;;2.33;2.33;;;;;57.36;28.71;100551.59;6271751;22;45368;-92
2022/06/23 14:03:18;;;;;;;;;4.00;4.00;;;;;55.17;30.77;100555.44;6299642;22;45342;-91
2022/06/23 14:05:53;;;;;;;;;3.33;2.33;;;;;55.82;30.63;100555.88;6272474;22;47970;-91
2022/06/23 14:08:35;;;;;;;;;3.33;3.33;;;;;57.38;31.42;100540.06;6272256;22;45432;-91
2022/06/23 14:11:42;;;;;;;;;2.00;2.00;;;;;59.31;30.03;100541.41;6300375;22;45296;-92
2022/06/23 14:14:10;;;;;;;;;2.00;2.00;;;;;60.64;28.88;100549.63;6233672;22;45364;-90
2022/06/23 14:16:53;;;;;;;;;3.00;3.00;;;;;61.03;28.50;100541.91;6234425;22;46166;-90
2022/06/23 14:19:26;;;;;;;;;4.00;3.67;;;;;58.81;29.03;100533.72;6209148;22;45489;-91
2022/06/23 14:21:59;;;;;;;;;2.00;2.00;;;;;55.97;30.15;100532.06;6234752;22;45267;-91
2022/06/23 14:24:48;;;;;;;;;2.67;2.67;;;;;54.68;30.74;100545.81;6208016;22;45596;-90
2022/06/23 14:27:19;;;;;;;;;2.00;2.00;;;;;54.34;31.45;100537.69;6234116;22;45775;-92
2022/06/23 14:29:53;;;;;;;;;3.00;3.00;;;;;55.30;31.37;100537.56;6211361;22;45329;-89
2022/06/23 14:32:34;;;;;;;;;3.00;3.00;;;;;54.11;29.91;100533.53;6208989;22;45736;-90
2022/06/23 14:35:24;;;;;;;;;2.00;2.00;;;;;51.49;31.12;100541.97;6210906;22;45434;-93
2022/06/23 14:37:59;;;;;;;;;2.00;2.00;;;;;51.45;32.82;100544.28;6234850;22;46371;-92
2022/06/23 14:40:47;;;;;;;;;3.00;1.67;;;;;52.57;32.25;100538.50;6209782;22;45278;-92
2022/06/23 14:43:29;;;;;;;;;3.00;3.00;;;;;52.39;31.66;100544.72;6237133;22;45276;-91
2022/06/23 14:46:16;;;;;;;;;2.33;2.33;;;;;50.94;31.54;100524.91;6210245;22;45362;-92
2022/06/23 14:48:49;;;;;;;;;2.00;2.00;;;;;49.17;32.72;100522.25;6285809;22;46480;-91
2022/06/23 14:51:48;;;;;;;;;2.67;2.67;;;;;47.45;33.14;100525.03;6272128;22;45282;-89
2022/06/23 14:54:14;;;;;;;;;3.33;3.33;;;;;45.92;34.72;100537.50;6302768;22;45365;-92
2022/06/23 14:56:56;;;;;;;;;3.00;3.00;;;;;44.71;35.85;100531.72;6269124;22;45536;-91
2022/06/23 14:59:49;;;;;;;;;3.00;3.00;;;;;43.63;36.68;100526.84;6299279;22;45562;-87
2022/06/23 15:02:17;;;;;;;;;3.00;3.00;;;;;42.81;38.10;100530.22;6258102;22;45347;-87
2022/06/23 15:05:23;;;;;;;;;3.00;3.00;;;;;41.98;38.55;100525.84;6271885;22;45407;-87
2022/06/23 15:08:24;;;;;;;;;4.67;4.00;;;;;41.30;39.53;100519.13;6273588;22;45489;-86
2022/06/23 15:11:19;;;;;;;;;3.33;3.33;;;;;40.44;40.65;100492.53;6207900;22;47584;-87
2022/06/23 15:13:52;;;;;;;;;2.67;2.67;;;;;39.90;41.47;100500.75;6209866;22;45995;-86
2022/06/23 15:16:31;;;;;;;;;4.00;3.00;;;;;39.34;42.01;100492.47;6208343;22;45532;-87
2022/06/23 15:19:12;;;;;;;;;2.00;2.00;;;;;38.77;42.61;100487.78;6234644;22;45625;-87
2022/06/23 15:25:01;;;;;;;;;2.00;2.00;;;;;37.48;44.44;100500.09;6236110;22;45418;-88
2022/06/23 15:27:41;;;;;;;;;3.00;3.00;;;;;37.02;44.55;100483.28;6209231;22;45319;-87
2022/06/23 15:30:21;;;;;;;;;4.00;3.00;;;;;36.61;44.92;100488.84;6208516;22;45485;-88
2022/06/23 15:32:59;;;;;;;;;3.00;3.00;;;;;36.20;45.65;100490.69;6208585;22;48176;-88
2022/06/23 15:35:44;;;;;;;;;5.00;3.00;;;;;35.85;46.31;100492.91;6235646;22;45294;-88
2022/06/23 15:38:18;;;;;;;;;2.00;2.00;;;;;35.54;46.64;100495.81;6236757;22;45382;-88
2022/06/23 15:40:48;;;;;;;;;3.33;3.33;;;;;35.32;47.55;100497.19;6209814;22;45734;-88
2022/06/23 15:43:15;;;;;;;;;3.00;2.00;;;;;35.21;47.63;100500.59;6209155;22;47274;-89
2022/06/23 15:45:55;;;;;;;;;2.67;2.00;;;;;35.13;48.22;100491.16;6263274;22;45706;-89
2022/06/23 15:48:33;;;;;;;;;2.33;2.33;;;;;35.00;48.67;100484.63;6271508;22;45674;-89
2022/06/23 15:51:10;;;;;;;;;2.00;2.00;;;;;34.93;49.60;100485.09;6301436;22;45419;-88
2022/06/23 15:53:56;;;;;;;;;2.67;2.33;;;;;34.79;49.22;100490.41;6270503;22;46038;-89
2022/06/23 15:56:36;;;;;;;;;2.67;2.67;;;;;34.63;49.56;100475.97;6301214;22;45339;-89
2022/06/23 15:59:11;;;;;;;;;1.00;1.00;;;;;34.49;49.53;100479.53;6301276;22;45449;-89
2022/06/23 16:01:42;;;;;;;;;3.00;2.67;;;;;34.37;49.97;100482.06;6301539;22;45366;-89
2022/06/23 16:04:19;;;;;;;;;2.00;2.00;;;;;34.27;50.13;100476.25;6271799;22;45282;-89
2022/06/23 16:06:48;;;;;;;;;3.00;3.00;;;;;34.18;49.99;100468.59;6271463;22;45370;-89
2022/06/23 16:09:27;;;;;;;;;3.33;3.33;;;;;34.17;50.83;100478.66;6273262;22;46589;-89
2022/06/23 16:11:57;;;;;;;;;2.00;2.00;;;;;34.14;51.23;100470.66;6273392;22;45381;-88
2022/06/23 16:14:40;;;;;;;;;2.67;2.67;;;;;34.09;51.27;100465.50;6300911;22;45409;-85
2022/06/23 16:17:10;;;;;;;;;4.00;4.00;;;;;34.00;51.44;100468.75;6299762;22;45338;-87
2022/06/23 16:19:47;;;;;;;;;3.00;1.67;;;;;33.88;51.66;100465.78;6295639;22;45348;-86
2022/06/23 16:22:18;;;;;;;;;2.67;1.67;;;;;33.75;51.66;100467.41;6301547;22;45358;-87
2022/06/23 16:24:57;;;;;;;;;5.00;3.00;;;;;33.60;51.69;100475.50;6272780;22;47382;-86
2022/06/23 16:27:41;;;;;;;;;4.33;3.00;;;;;33.47;52.91;100479.88;6300886;22;45355;-86
2022/06/23 16:30:23;;;;;;;;;3.67;3.33;;;;;33.32;52.26;100463.47;6301224;22;45557;-87
2022/06/23 16:32:54;;;;;;;;;2.00;2.00;;;;;33.21;53.27;100472.19;6299676;22;45619;-87
2022/06/23 16:35:26;;;;;;;;;3.00;3.00;;;;;33.17;53.21;100468.75;6272537;22;47039;-87
2022/06/23 16:38:05;;;;;;;;;2.67;2.67;;;;;33.10;53.88;100464.59;6301338;22;45809;-87
2022/06/23 16:40:44;;;;;;;;;3.33;2.67;;;;;33.03;53.96;100455.03;6274146;22;45279;-87
2022/06/23 16:43:13;;;;;;;;;2.33;2.33;;;;;32.99;53.35;100457.91;6300897;22;45338;-86
2022/06/23 16:46:01;;;;;;;;;4.33;3.00;;;;;32.94;53.97;100459.13;6300514;22;46738;-85
2022/06/23 16:48:40;;;;;;;;;2.00;2.00;;;;;32.88;54.38;100454.94;6273130;22;45336;-86
2022/06/23 16:51:34;;;;;;;;;4.67;2.33;;;;;32.83;54.21;100451.56;6274056;22;45313;-86
2022/06/23 16:54:24;;;;;;;;;2.67;2.67;;;;;32.75;54.32;100444.72;6269077;22;45800;-86
2022/06/23 16:57:03;;;;;;;;;2.00;2.00;;;;;32.70;53.78;100449.53;6300140;22;46566;-86
2022/06/23 16:59:42;;;;;;;;;2.00;2.00;;;;;32.63;54.05;100434.44;6300754;22;45228;-86
2022/06/23 17:02:29;;;;;;;;;3.00;3.00;;;;;32.54;54.45;100435.84;6273047;22;45326;-86
2022/06/23 17:05:12;;;;;;;;;3.00;3.00;;;;;32.46;54.26;100430.81;6301156;22;45280;-87
2022/06/23 17:07:50;;;;;;;;;2.67;2.67;;;;;32.40;54.43;100423.84;6273315;22;48241;-87
2022/06/23 17:10:38;;;;;;;;;3.00;3.00;;;;;32.34;54.62;100418.75;6266071;22;45618;-86
2022/06/23 17:13:21;;;;;;;;;2.00;2.00;;;;;32.26;55.39;100411.03;6268484;22;45385;-87
2022/06/23 17:15:57;;;;;;;;;4.00;4.00;;;;;32.23;55.16;100412.06;6271335;22;45429;-86
2022/06/23 17:18:43;;;;;;;;;2.00;2.00;;;;;32.16;55.34;100410.63;6272308;22;48330;-88
2022/06/23 17:21:15;;;;;;;;;3.00;3.00;;;;;32.02;55.60;100405.84;6266526;22;45272;-84
2022/06/23 17:23:47;;;;;;;;;3.00;3.00;;;;;31.93;55.13;100409.91;6269697;22;45285;-88
2022/06/23 17:26:31;;;;;;;;;3.00;3.00;;;;;31.87;55.58;100411.13;6269955;22;45394;-86
2022/06/23 17:29:05;;;;;;;;;2.00;2.00;;;;;31.76;55.48;100400.78;6267582;22;48413;-88
2022/06/23 17:31:46;;;;;;;;;1.00;1.00;;;;;31.67;56.01;100407.53;6270442;22;45339;-89
2022/06/23 17:34:28;;;;;;;;;2.67;2.67;;;;;31.64;56.07;100401.41;6270059;22;45199;-91
2022/06/23 17:37:17;;;;;;;;;3.33;2.67;;;;;31.56;56.30;100407.22;6271920;22;45230;-91
2022/06/23 17:45:54;;;;;;;;;1.00;1.00;;;;;31.31;55.62;100405.66;6270838;22;45261;-92
2022/06/23 17:48:30;;;;;;;;;2.00;1.00;;;;;31.23;56.05;100408.75;6272076;22;45506;-95
2022/06/23 17:51:00;;;;;;;;;2.33;2.00;;;;;31.14;56.18;100401.91;6275672;22;45710;-92
2022/06/23 17:53:26;;;;;;;;;2.00;2.00;;;;;31.07;56.81;100392.31;6275224;22;45340;-90
2022/06/23 17:55:53;;;;;;;;;2.67;2.67;;;;;31.06;56.70;100398.69;6267685;22;45618;-93
2022/06/23 17:58:32;;;;;;;;;4.00;3.00;;;;;31.00;56.52;100402.56;6272541;22;45416;-95
2022/06/23 18:01:19;;;;;;;;;2.00;2.00;;;;;30.98;56.58;100408.03;6276781;22;47044;-94
2022/06/23 18:03:49;;;;;;;;;3.00;2.67;;;;;30.98;56.76;100410.75;6270866;22;45313;-93
2022/06/23 18:06:18;;;;;;;;;4.00;4.00;;;;;30.97;57.09;100418.97;6274409;22;45319;-96
2022/06/23 18:08:46;;;;;;;;;0.00;0.00;;;;;30.94;56.80;100420.00;6271554;22;45323;-91
2022/06/23 18:11:27;;;;;;;;;2.00;1.33;;;;;30.90;56.78;100418.31;6268851;22;47342;-96
2022/06/23 18:14:19;;;;;;;;;2.00;2.00;;;;;30.83;56.45;100420.44;6277338;22;45703;-96
2022/06/23 18:17:13;;;;;;;;;1.00;1.00;;;;;30.71;56.83;100421.00;6288690;22;44744;-96
2022/06/23 18:20:02;;;;;;;;;1.00;1.00;;;;;30.63;57.05;100426.75;6282672;22;45425;-96
2022/06/23 18:22:43;;;;;;;;;4.00;4.00;;;;;30.52;57.34;100430.84;6273407;22;45369;-96
2022/06/23 18:25:45;;;;;;;;;0.33;0.33;;;;;30.45;57.33;100430.22;6280262;22;45221;-96
2022/06/23 18:28:26;;;;;;;;;3.00;3.00;;;;;30.34;57.41;100429.81;6274822;22;45168;-96
2022/06/23 18:31:00;;;;;;;;;0.00;0.00;;;;;30.28;56.95;100432.75;6273819;22;45653;-95
2022/06/23 18:33:57;;;;;;;;;2.00;1.00;;;;;30.21;57.16;100424.88;6271801;22;46394;-94
2022/06/23 18:36:34;;;;;;;;;4.00;2.00;;;;;30.15;57.60;100418.88;6266101;22;45398;-95
2022/06/23 18:39:02;;;;;;;;;4.00;2.67;;;;;30.09;58.10;100418.19;6271175;22;45234;-94
2022/06/23 18:42:02;;;;;;;;;4.00;2.00;;;;;30.02;57.74;100432.94;6271602;22;45242;-95
2022/06/23 18:44:36;;;;;;;;;2.00;2.00;;;;;29.96;57.68;100430.47;6270674;22;46237;-96
2022/06/23 18:47:08;;;;;;;;;3.00;1.00;;;;;29.87;58.05;100419.06;6276512;22;45228;-95
2022/06/23 18:49:46;;;;;;;;;2.00;2.00;;;;;29.80;58.04;100419.38;6277357;22;45256;-96
2022/06/23 18:52:16;;;;;;;;;1.00;1.00;;;;;29.73;58.41;100416.06;6281786;22;45238;-95
2022/06/23 18:55:04;;;;;;;;;1.00;1.00;;;;;29.67;58.46;100423.47;6277152;22;48170;-96
2022/06/23 18:57:33;;;;;;;;;2.33;2.33;;;;;29.58;59.05;100417.53;6277352;22;45340;-94
2022/06/23 19:00:14;;;;;;;;;1.00;1.00;;;;;29.52;58.64;100418.66;6270653;22;45478;-95
2022/06/23 19:02:54;;;;;;;;;3.67;2.67;;;;;29.47;58.93;100416.16;6262699;22;45504;-95
2022/06/23 19:05:35;;;;;;;;;2.00;2.00;;;;;29.38;59.32;100420.09;6267711;22;46317;-93
2022/06/23 19:08:05;;;;;;;;;2.00;2.00;;;;;29.32;60.06;100417.63;6271374;22;45489;-94
2022/06/23 19:10:44;;;;;;;;;4.00;4.00;;;;;29.27;59.67;100416.94;6302303;22;45296;-95
2022/06/23 19:13:30;;;;;;;;;2.33;2.33;;;;;29.20;59.94;100413.56;6274165;22;45389;-93
2022/06/23 19:16:04;;;;;;;;;3.00;2.00;;;;;29.13;60.36;100409.34;6302075;22;46339;-95